Time;durP1;ratioP1;P1;durP2;ratioP2;P2;SDS_P1;SDS_P2;PMS_P1;PMS_P2;Temp;Humidity;BMP_temperature;BMP_pressure;BME280_temperature;BME280_humidity;BME280_pressure;Samples;Min_cycle;Max_cycle;Signal;HPM_P1;HPM_P2
2023/12/13 00:02:07;;;;;;;12.68;5.80;;;;;;;15.70;72.90;95814.50;5084407;28;20024;-26
2023/12/13 00:04:33;;;;;;;10.98;6.20;;;;;;;15.72;72.34;95809.28;5083866;28;20108;-27
2023/12/13 00:06:58;;;;;;;9.45;6.20;;;;;;;15.67;72.71;95807.25;5082348;28;20020;-27
2023/12/13 00:09:24;;;;;;;9.10;5.80;;;;;;;15.58;73.51;95796.44;5083751;28;20149;-27
2023/12/13 00:11:49;;;;;;;6.82;5.18;;;;;;;15.74;72.82;95799.41;5057009;28;20025;-26
2023/12/13 00:14:14;;;;;;;6.60;4.78;;;;;;;15.54;73.79;95804.78;5080941;28;20029;-27
2023/12/13 00:16:40;;;;;;;7.65;4.15;;;;;;;15.44;74.71;95806.88;5080125;28;20020;-27
2023/12/13 00:19:06;;;;;;;6.75;3.65;;;;;;;15.60;73.86;95786.50;5075560;28;20031;-27
2023/12/13 00:21:32;;;;;;;8.82;4.28;;;;;;;15.50;74.01;95779.63;5086546;28;20025;-27
2023/12/13 00:23:57;;;;;;;7.95;5.10;;;;;;;15.46;73.95;95779.81;5087929;28;20030;-27
2023/12/13 00:26:23;;;;;;;7.82;4.05;;;;;;;15.67;73.98;95775.19;5075864;28;20492;-26
2023/12/13 00:28:50;;;;;;;8.35;3.97;;;;;;;15.34;74.83;95774.66;5083572;28;20065;-27
2023/12/13 00:31:16;;;;;;;10.82;3.80;;;;;;;15.70;73.49;95773.50;5073997;28;20025;-27
2023/12/13 00:33:42;;;;;;;8.50;4.10;;;;;;;15.45;74.67;95770.13;5080854;28;20104;-27
2023/12/13 00:36:08;;;;;;;9.10;3.30;;;;;;;15.39;74.79;95769.28;5079678;28;20029;-27
2023/12/13 00:38:34;;;;;;;6.57;3.70;;;;;;;15.48;74.78;95762.19;5083137;28;20111;-27
2023/12/13 00:41:00;;;;;;;10.35;3.60;;;;;;;15.68;74.02;95767.75;5077345;28;20115;-27
2023/12/13 00:43:26;;;;;;;8.77;4.47;;;;;;;15.62;74.27;95769.66;5080537;28;20035;-26
2023/12/13 00:45:51;;;;;;;9.82;4.90;;;;;;;15.65;74.32;95761.25;5080474;28;20553;-28
2023/12/13 00:48:17;;;;;;;12.77;4.95;;;;;;;15.81;72.87;95765.47;5080455;28;20028;-27
2023/12/13 00:50:43;;;;;;;20.00;10.45;;;;;;;15.76;73.69;95772.34;5080462;28;20127;-27
2023/12/13 00:53:08;;;;;;;11.32;6.25;;;;;;;15.35;75.82;95759.78;5080171;28;20495;-27
2023/12/13 00:55:34;;;;;;;12.10;5.63;;;;;;;15.56;74.90;95760.63;5087584;28;20080;-27
2023/12/13 00:57:59;;;;;;;13.55;7.45;;;;;;;15.40;75.18;95757.13;5076380;28;20012;-27
2023/12/13 01:00:25;;;;;;;13.05;7.47;;;;;;;15.75;74.00;95770.09;5077026;28;20025;-27
2023/12/13 01:02:51;;;;;;;11.63;6.60;;;;;;;15.62;75.16;95759.47;5090346;28;20069;-27
2023/12/13 01:05:16;;;;;;;10.48;5.38;;;;;;;15.67;74.52;95758.06;5089244;28;20373;-28
2023/12/13 01:07:42;;;;;;;14.30;5.15;;;;;;;15.57;75.09;95753.94;5078652;28;20516;-27
2023/12/13 01:10:08;;;;;;;7.50;4.50;;;;;;;15.63;75.07;95757.47;5084031;28;20535;-26
2023/12/13 01:12:33;;;;;;;8.02;3.80;;;;;;;15.78;74.46;95760.94;5083762;28;20062;-27
2023/12/13 01:14:59;;;;;;;6.22;3.20;;;;;;;15.83;74.46;95757.50;5085259;28;20027;-27
2023/12/13 01:17:24;;;;;;;11.65;3.50;;;;;;;15.73;74.75;95761.59;5087951;28;20068;-26
2023/12/13 01:19:53;;;;;;;6.32;3.20;;;;;;;15.61;75.33;95770.88;5079724;28;20027;-26
2023/12/13 01:22:19;;;;;;;7.25;2.85;;;;;;;15.83;74.15;95765.72;5086506;28;20016;-27
2023/12/13 01:24:45;;;;;;;5.65;2.35;;;;;;;15.80;74.80;95761.22;5087867;28;20036;-27
2023/12/13 01:27:10;;;;;;;8.70;2.70;;;;;;;15.82;74.59;95766.22;5084600;28;20020;-27
2023/12/13 01:29:36;;;;;;;10.73;3.38;;;;;;;15.80;74.33;95761.22;5082271;28;20025;-26
2023/12/13 01:32:02;;;;;;;7.70;2.22;;;;;;;15.87;74.33;95755.34;5083254;28;20021;-27
2023/12/13 01:34:28;;;;;;;3.67;2.90;;;;;;;15.78;74.53;95750.75;5083776;28;20025;-27
2023/12/13 01:36:54;;;;;;;8.50;2.63;;;;;;;15.76;74.08;95755.19;5076312;28;20028;-29
2023/12/13 01:39:19;;;;;;;7.03;2.05;;;;;;;15.84;74.00;95750.81;5083912;28;20023;-27
2023/12/13 01:41:45;;;;;;;7.50;2.50;;;;;;;15.79;74.55;95759.72;5069050;28;20020;-27
2023/12/13 01:44:10;;;;;;;7.07;2.63;;;;;;;16.02;73.81;95764.25;5086577;28;20032;-27
2023/12/13 01:46:37;;;;;;;7.75;2.53;;;;;;;15.81;74.40;95751.78;5076125;28;20541;-27
2023/12/13 01:49:05;;;;;;;7.20;2.33;;;;;;;15.90;74.37;95748.91;5083372;28;20017;-27
2023/12/13 01:51:32;;;;;;;10.15;2.50;;;;;;;15.98;73.77;95746.53;5083306;28;20044;-27
2023/12/13 01:53:58;;;;;;;8.55;2.35;;;;;;;15.84;74.36;95750.06;5082768;28;20150;-26
2023/12/13 01:56:24;;;;;;;9.32;2.75;;;;;;;15.94;73.85;95749.47;5083006;28;20099;-27
2023/12/13 01:58:49;;;;;;;6.18;2.22;;;;;;;15.83;73.87;95735.63;5085567;28;20041;-26
2023/12/13 02:01:15;;;;;;;10.65;2.67;;;;;;;15.99;73.55;95740.56;5088078;28;20021;-27
2023/12/13 02:03:40;;;;;;;10.18;2.75;;;;;;;15.92;74.02;95730.06;5082851;28;20019;-26
2023/12/13 02:06:06;;;;;;;5.80;2.20;;;;;;;15.85;74.27;95735.16;5079426;28;20145;-27
2023/12/13 02:08:33;;;;;;;6.75;2.35;;;;;;;15.73;74.51;95737.00;5086534;28;20077;-26
2023/12/13 02:10:59;;;;;;;8.40;2.72;;;;;;;15.91;73.60;95734.00;5077865;28;20028;-27
2023/12/13 02:13:25;;;;;;;10.85;3.28;;;;;;;16.02;73.34;95734.16;5088356;28;20051;-27
2023/12/13 02:15:50;;;;;;;7.13;2.25;;;;;;;15.92;73.96;95740.25;5082802;28;20025;-26
2023/12/13 02:18:16;;;;;;;7.30;1.95;;;;;;;15.76;74.52;95734.06;5083169;28;20020;-27
2023/12/13 02:20:42;;;;;;;7.03;2.28;;;;;;;15.82;73.86;95725.94;5082681;28;20104;-27
2023/12/13 02:23:08;;;;;;;7.95;2.60;;;;;;;15.94;73.08;95716.66;5077107;28;20017;-27
2023/12/13 02:25:36;;;;;;;11.48;2.95;;;;;;;16.07;72.85;95706.09;5086251;28;20038;-27
2023/12/13 02:28:04;;;;;;;10.13;3.72;;;;;;;15.98;73.39;95694.56;5084667;28;20028;-27
2023/12/13 02:30:30;;;;;;;7.30;2.97;;;;;;;16.00;72.40;95692.84;5082414;28;20125;-27
2023/12/13 02:32:56;;;;;;;5.55;2.10;;;;;;;15.82;74.09;95693.88;5081527;28;20024;-27
2023/12/13 02:35:21;;;;;;;5.80;2.33;;;;;;;15.95;72.89;95684.59;5077409;28;20021;-26
2023/12/13 02:37:49;;;;;;;8.63;2.67;;;;;;;16.06;72.98;95690.19;5070299;28;20017;-26
2023/12/13 02:40:18;;;;;;;8.30;2.10;;;;;;;15.90;73.25;95677.81;5082757;28;20051;-27
2023/12/13 02:42:44;;;;;;;8.07;2.63;;;;;;;15.97;72.83;95671.19;5082155;28;20029;-28
2023/12/13 02:45:14;;;;;;;6.03;2.00;;;;;;;15.91;73.50;95681.31;5082288;28;20104;-27
2023/12/13 02:47:43;;;;;;;9.05;2.42;;;;;;;15.98;73.36;95667.22;5059360;28;20039;-27
2023/12/13 02:50:11;;;;;;;6.93;2.30;;;;;;;15.98;73.37;95673.44;5085203;28;20066;-27
2023/12/13 02:52:37;;;;;;;7.78;2.13;;;;;;;15.89;73.60;95670.84;5082939;28;20453;-26
2023/12/13 02:55:04;;;;;;;8.05;1.80;;;;;;;15.95;73.60;95668.91;5075232;28;20043;-27
2023/12/13 02:57:29;;;;;;;7.85;1.83;;;;;;;16.06;73.32;95669.06;5082287;28;20525;-27
2023/12/13 02:59:55;;;;;;;8.65;1.98;;;;;;;16.01;73.08;95658.06;5064066;28;20031;-27
2023/12/13 03:02:20;;;;;;;8.55;2.20;;;;;;;16.03;73.53;95661.81;5069658;28;20481;-27
2023/12/13 03:04:45;;;;;;;5.63;1.90;;;;;;;15.93;74.19;95655.00;5076880;28;20412;-27
2023/12/13 03:07:12;;;;;;;6.30;1.95;;;;;;;15.98;73.50;95656.28;5081574;28;20028;-27
2023/12/13 03:09:37;;;;;;;12.32;2.28;;;;;;;15.87;74.81;95661.63;5081517;28;20027;-27
2023/12/13 03:12:03;;;;;;;7.28;2.17;;;;;;;15.92;74.92;95647.25;5059861;28;20024;-27
2023/12/13 03:14:28;;;;;;;4.65;1.85;;;;;;;15.88;75.23;95649.44;5086704;28;20025;-27
2023/12/13 03:16:54;;;;;;;10.25;1.63;;;;;;;15.88;74.26;95647.47;5081049;28;20022;-27
2023/12/13 03:19:19;;;;;;;9.90;1.83;;;;;;;15.88;74.69;95644.72;5077677;28;20016;-27
2023/12/13 03:21:45;;;;;;;10.52;1.80;;;;;;;15.91;75.41;95632.09;5084685;28;20020;-27
2023/12/13 03:24:10;;;;;;;4.82;1.77;;;;;;;16.00;74.91;95613.53;5057363;28;20039;-26
2023/12/13 03:26:36;;;;;;;9.18;1.77;;;;;;;15.80;75.54;95613.59;5080312;28;20024;-26
2023/12/13 03:29:01;;;;;;;8.02;1.90;;;;;;;15.81;75.32;95601.41;5088751;28;20055;-27
2023/12/13 03:31:26;;;;;;;8.93;2.00;;;;;;;15.80;75.68;95594.44;5081664;28;20024;-26
2023/12/13 03:33:54;;;;;;;9.90;1.90;;;;;;;15.92;74.73;95601.53;5081182;28;20442;-27
2023/12/13 03:36:20;;;;;;;8.13;2.20;;;;;;;15.82;75.08;95605.66;5081466;28;20432;-28
2023/12/13 03:38:46;;;;;;;4.95;1.77;;;;;;;15.91;75.17;95607.47;5081879;28;20012;-27
2023/12/13 03:41:11;;;;;;;6.05;1.63;;;;;;;16.02;74.09;95600.16;5081257;28;20035;-27
2023/12/13 03:43:37;;;;;;;5.72;1.77;;;;;;;16.10;73.86;95593.00;5084183;28;20025;-27
2023/12/13 03:46:02;;;;;;;5.35;1.50;;;;;;;16.03;73.73;95595.44;5084136;28;20015;-26
2023/12/13 03:48:28;;;;;;;3.45;1.70;;;;;;;15.91;74.59;95585.59;5082384;28;20020;-27
2023/12/13 03:50:53;;;;;;;8.13;1.80;;;;;;;15.97;74.24;95578.19;5080813;28;20485;-27
2023/12/13 03:53:19;;;;;;;6.82;1.80;;;;;;;15.99;73.65;95587.44;5081093;28;20019;-27
2023/12/13 03:55:44;;;;;;;7.18;1.60;;;;;;;15.92;73.74;95582.38;5088544;28;20538;-26
2023/12/13 03:58:10;;;;;;;7.75;1.40;;;;;;;15.99;73.52;95587.44;5081028;28;20520;-27
2023/12/13 04:00:35;;;;;;;8.52;1.65;;;;;;;15.90;74.27;95589.56;5073668;28;20026;-27
2023/12/13 04:03:01;;;;;;;7.45;1.70;;;;;;;15.92;74.26;95579.66;5070147;28;20025;-27
2023/12/13 04:05:27;;;;;;;7.53;1.63;;;;;;;16.00;73.56;95567.06;5087032;28;20094;-28
2023/12/13 04:07:52;;;;;;;4.15;1.40;;;;;;;16.00;72.97;95578.00;5081673;28;20461;-27
2023/12/13 04:10:19;;;;;;;6.47;2.17;;;;;;;15.95;73.91;95570.47;5073566;28;20016;-27
2023/12/13 04:12:45;;;;;;;5.45;1.30;;;;;;;15.96;73.31;95571.97;5080991;28;20472;-27
2023/12/13 04:15:11;;;;;;;8.00;1.58;;;;;;;15.78;73.95;95577.75;5081077;28;20024;-27
2023/12/13 04:17:37;;;;;;;10.48;1.83;;;;;;;15.90;73.76;95560.25;5080879;28;20363;-27
2023/12/13 04:20:02;;;;;;;2.88;1.50;;;;;;;16.06;73.07;95562.41;5080772;28;20026;-27
2023/12/13 04:22:28;;;;;;;5.32;1.48;;;;;;;15.96;73.34;95571.97;5080752;28;20020;-27
2023/12/13 04:24:53;;;;;;;6.07;1.40;;;;;;;15.84;73.56;95559.41;5080479;28;20028;-27
2023/12/13 04:27:19;;;;;;;3.92;1.60;;;;;;;16.01;73.21;95552.16;5082315;28;20050;-27
2023/12/13 04:29:44;;;;;;;8.63;2.50;;;;;;;15.91;73.40;95547.31;5083866;28;20052;-26
2023/12/13 04:32:10;;;;;;;6.63;1.58;;;;;;;15.89;73.71;95542.34;5082711;28;20022;-27
2023/12/13 04:34:35;;;;;;;6.28;1.40;;;;;;;15.93;73.17;95545.63;5080504;28;20047;-26
2023/12/13 04:37:01;;;;;;;6.93;1.55;;;;;;;15.91;73.56;95534.41;5087228;28;20024;-27
2023/12/13 04:39:26;;;;;;;5.85;1.35;;;;;;;15.79;74.11;95530.06;5074516;28;20099;-26
2023/12/13 04:41:52;;;;;;;7.50;1.50;;;;;;;15.93;73.73;95529.22;5078774;28;20028;-27
2023/12/13 04:44:17;;;;;;;3.85;1.48;;;;;;;15.71;73.54;95518.78;5080398;28;20020;-27
2023/12/13 04:46:43;;;;;;;5.97;1.70;;;;;;;15.71;74.48;95515.28;5080630;28;20047;-27
2023/12/13 04:49:08;;;;;;;6.65;1.70;;;;;;;15.74;74.67;95523.28;5080165;28;20100;-28
2023/12/13 04:51:34;;;;;;;5.00;1.50;;;;;;;15.93;73.18;95537.41;5080689;28;20092;-26
2023/12/13 04:53:59;;;;;;;5.25;1.80;;;;;;;15.87;72.88;95542.06;5061317;28;20074;-26
2023/12/13 04:56:25;;;;;;;6.32;2.25;;;;;;;15.79;74.15;95535.53;5080602;28;20023;-28
2023/12/13 04:58:50;;;;;;;3.95;1.35;;;;;;;15.78;74.25;95540.25;5075437;28;20015;-26
2023/12/13 05:01:16;;;;;;;6.25;1.50;;;;;;;15.94;73.70;95547.13;5084939;28;20461;-27
2023/12/13 05:03:42;;;;;;;8.88;1.70;;;;;;;15.98;73.48;95558.56;5079874;28;20483;-26
2023/12/13 05:06:07;;;;;;;6.70;1.55;;;;;;;15.97;73.38;95561.78;5087104;28;20043;-26
2023/12/13 05:08:33;;;;;;;5.50;1.38;;;;;;;15.79;74.16;95562.88;5072735;28;20421;-27
2023/12/13 05:10:59;;;;;;;8.70;1.67;;;;;;;16.00;73.39;95569.78;5080292;28;20043;-27
2023/12/13 05:13:25;;;;;;;7.82;2.53;;;;;;;15.97;73.56;95584.41;5080565;28;20032;-26
2023/12/13 05:15:51;;;;;;;8.10;1.95;;;;;;;16.00;73.44;95579.97;5072613;28;20031;-26
2023/12/13 05:18:17;;;;;;;8.00;1.90;;;;;;;15.89;73.66;95569.69;5090605;28;20020;-26
2023/12/13 05:20:42;;;;;;;8.55;2.33;;;;;;;15.82;73.88;95559.91;5076894;28;20070;-27
2023/12/13 05:23:07;;;;;;;8.98;1.80;;;;;;;15.94;73.44;95563.53;5080903;28;20024;-26
2023/12/13 05:25:33;;;;;;;9.23;2.45;;;;;;;15.94;73.06;95565.50;5078902;28;20027;-26
2023/12/13 05:27:59;;;;;;;5.53;1.90;;;;;;;15.78;73.65;95566.81;5079804;28;20028;-26
2023/12/13 05:30:24;;;;;;;6.22;1.50;;;;;;;15.96;73.90;95563.78;5082683;28;20477;-28
2023/12/13 05:32:53;;;;;;;7.20;1.65;;;;;;;15.85;73.68;95562.91;5083324;28;20103;-27
2023/12/13 05:35:18;;;;;;;7.18;1.60;;;;;;;15.95;73.18;95554.06;5074517;28;20107;-27
2023/12/13 05:37:44;;;;;;;6.50;2.05;;;;;;;15.92;73.83;95555.06;5086326;28;20027;-27
2023/12/13 05:40:09;;;;;;;6.88;1.83;;;;;;;16.02;73.26;95553.66;5079407;28;20016;-27
2023/12/13 05:42:35;;;;;;;9.32;2.20;;;;;;;15.76;74.38;95558.34;5075317;28;20020;-27
2023/12/13 05:45:00;;;;;;;6.70;2.58;;;;;;;15.95;73.40;95539.66;5083221;28;20055;-26
2023/12/13 05:47:26;;;;;;;6.80;1.88;;;;;;;15.82;73.61;95536.56;5056794;28;20025;-26
2023/12/13 05:49:51;;;;;;;9.40;1.98;;;;;;;15.82;74.07;95540.03;5083028;28;20049;-27
2023/12/13 05:52:18;;;;;;;7.32;2.83;;;;;;;15.94;73.45;95541.66;5076134;28;20489;-27
2023/12/13 05:54:44;;;;;;;6.47;1.60;;;;;;;16.01;73.31;95535.00;5083584;28;20110;-27
2023/12/13 05:57:10;;;;;;;9.52;2.17;;;;;;;15.92;73.73;95548.81;5088213;28;20059;-27
2023/12/13 05:59:35;;;;;;;7.28;2.00;;;;;;;15.83;73.86;95541.50;5085129;28;20024;-27
2023/12/13 06:02:01;;;;;;;4.97;1.85;;;;;;;15.94;73.37;95541.66;5086658;28;20049;-27
2023/12/13 06:04:26;;;;;;;9.13;2.00;;;;;;;15.95;73.83;95543.13;5079753;28;20082;-27
2023/12/13 06:06:52;;;;;;;6.90;1.70;;;;;;;15.93;73.42;95544.88;5083450;28;20020;-27
2023/12/13 06:09:18;;;;;;;13.35;2.70;;;;;;;15.94;73.44;95551.84;5082572;28;20523;-27
2023/12/13 06:11:44;;;;;;;8.40;2.28;;;;;;;15.71;74.84;95554.31;5083359;28;20502;-26
2023/12/13 06:14:09;;;;;;;8.75;1.80;;;;;;;15.99;73.44;95560.06;5078099;28;20048;-27
2023/12/13 06:16:35;;;;;;;8.27;2.33;;;;;;;15.97;73.43;95561.78;5087639;28;20132;-27
2023/12/13 06:19:00;;;;;;;6.88;1.95;;;;;;;15.89;74.28;95563.47;5076453;28;20012;-26
2023/12/13 06:21:26;;;;;;;8.05;1.95;;;;;;;15.94;74.18;95566.25;5086299;28;20028;-27
2023/12/13 06:23:52;;;;;;;7.38;1.83;;;;;;;16.03;73.48;95568.06;5079103;28;20016;-26
2023/12/13 06:26:17;;;;;;;8.98;2.08;;;;;;;15.90;73.76;95557.50;5082276;28;20025;-27
2023/12/13 06:28:43;;;;;;;9.13;1.55;;;;;;;15.93;73.88;95553.81;5087873;28;20020;-27
2023/12/13 06:31:09;;;;;;;8.57;2.08;;;;;;;15.94;74.15;95557.31;5077002;28;20107;-27
2023/12/13 06:33:34;;;;;;;9.40;1.92;;;;;;;15.96;73.69;95561.03;5082512;28;20107;-27
2023/12/13 06:36:00;;;;;;;5.72;1.55;;;;;;;15.98;73.46;95564.03;5082727;28;20036;-27
2023/12/13 06:38:25;;;;;;;8.13;1.60;;;;;;;15.89;74.80;95556.00;5082485;28;20028;-27
2023/12/13 06:40:51;;;;;;;5.45;1.58;;;;;;;15.89;74.36;95561.47;5080211;28;20020;-27
2023/12/13 06:43:16;;;;;;;7.72;1.75;;;;;;;15.78;74.31;95564.84;5084300;28;20031;-28
2023/12/13 06:45:42;;;;;;;7.07;2.10;;;;;;;16.05;72.63;95558.16;5082324;28;20024;-27
2023/12/13 06:48:08;;;;;;;4.72;1.75;;;;;;;15.97;73.11;95562.53;5080832;28;20070;-27
2023/12/13 06:50:34;;;;;;;7.80;1.90;;;;;;;15.86;73.93;95559.69;5076802;28;20055;-27
2023/12/13 06:53:01;;;;;;;5.30;2.00;;;;;;;15.84;73.98;95564.13;5088341;28;20044;-27
2023/12/13 06:55:27;;;;;;;10.93;2.28;;;;;;;15.89;74.24;95561.47;5082330;28;20480;-27
2023/12/13 06:57:52;;;;;;;8.15;1.80;;;;;;;15.89;74.42;95553.28;5089438;28;20012;-27
2023/12/13 07:00:21;;;;;;;6.88;1.65;;;;;;;15.84;74.46;95543.03;5087787;28;20016;-27
2023/12/13 07:02:49;;;;;;;8.00;1.90;;;;;;;15.99;73.79;95519.06;5082804;28;20042;-28
2023/12/13 07:05:15;;;;;;;8.38;1.98;;;;;;;16.00;74.04;95517.81;5086506;28;20020;-27
2023/12/13 07:07:40;;;;;;;9.95;3.17;;;;;;;15.93;73.69;95512.81;5084232;28;20015;-27
2023/12/13 07:10:06;;;;;;;6.60;2.08;;;;;;;16.02;73.90;95520.84;5084601;28;20086;-27
2023/12/13 07:12:32;;;;;;;8.13;2.17;;;;;;;15.96;73.82;95520.03;5078800;28;20040;-28
2023/12/13 07:14:57;;;;;;;9.77;2.10;;;;;;;16.01;73.37;95529.50;5081682;28;20020;-26
2023/12/13 07:17:23;;;;;;;7.90;1.90;;;;;;;15.96;73.92;95527.47;5078252;28;20020;-27
2023/12/13 07:19:49;;;;;;;8.43;2.28;;;;;;;16.03;73.28;95522.34;5084873;28;20125;-27
2023/12/13 07:22:15;;;;;;;6.93;1.52;;;;;;;15.99;73.93;95516.31;5081495;28;20161;-27
2023/12/13 07:24:41;;;;;;;9.70;2.10;;;;;;;15.92;74.12;95522.22;5081755;28;20100;-27
2023/12/13 07:27:06;;;;;;;5.30;1.98;;;;;;;15.94;73.49;95527.97;5081485;28;20491;-28
2023/12/13 07:29:33;;;;;;;5.65;1.63;;;;;;;15.88;73.89;95534.63;5074039;28;20382;-27
2023/12/13 07:31:59;;;;;;;6.18;1.70;;;;;;;16.08;72.89;95527.09;5080992;28;20487;-26
2023/12/13 07:34:24;;;;;;;7.55;2.78;;;;;;;15.92;73.65;95530.44;5063629;28;20020;-28
2023/12/13 07:36:52;;;;;;;7.22;1.73;;;;;;;15.93;73.81;95523.75;5056425;28;20028;-27
2023/12/13 07:39:18;;;;;;;8.07;1.75;;;;;;;16.04;72.55;95529.31;5081652;28;20021;-26
2023/12/13 07:41:43;;;;;;;6.80;1.77;;;;;;;15.80;73.65;95524.13;5080743;28;20393;-27
2023/12/13 07:44:09;;;;;;;4.93;1.48;;;;;;;16.00;72.96;95528.75;5080508;28;20016;-27
2023/12/13 07:46:36;;;;;;;5.25;1.55;;;;;;;16.02;72.67;95526.31;5075689;28;20035;-26
2023/12/13 07:49:03;;;;;;;8.27;2.00;;;;;;;16.16;72.32;95525.44;5061244;28;20405;-26
2023/12/13 07:51:32;;;;;;;13.65;3.03;;;;;;;15.92;73.00;95522.22;5080479;28;20040;-26
2023/12/13 07:54:00;;;;;;;5.65;1.60;;;;;;;15.85;73.47;95522.66;5081237;28;20079;-27
2023/12/13 07:56:25;;;;;;;6.32;1.70;;;;;;;15.91;73.70;95522.72;5080907;28;20017;-26
2023/12/13 07:58:51;;;;;;;5.22;1.60;;;;;;;16.05;72.74;95528.06;5056613;28;20090;-27
2023/12/13 08:01:17;;;;;;;7.60;1.80;;;;;;;15.93;73.36;95539.41;5078790;28;20103;-27
2023/12/13 08:03:43;;;;;;;6.47;2.15;;;;;;;16.02;72.89;95536.50;5082662;28;20031;-27
2023/12/13 08:06:13;;;;;;;7.57;2.03;;;;;;;16.02;72.87;95534.50;5077416;28;20020;-27
2023/12/13 08:08:41;;;;;;;10.13;2.35;;;;;;;15.92;72.43;95538.66;5083069;28;20016;-27
2023/12/13 08:11:07;;;;;;;8.18;1.83;;;;;;;16.09;72.39;95536.03;5083134;28;20051;-27
2023/12/13 08:13:34;;;;;;;7.28;1.75;;;;;;;15.98;73.11;95530.47;5085324;28;20489;-27
2023/12/13 08:16:00;;;;;;;4.63;1.77;;;;;;;15.98;73.00;95544.16;5081775;28;20043;-27
2023/12/13 08:18:25;;;;;;;5.72;1.98;;;;;;;15.95;73.28;95548.59;5079687;28;20013;-27
2023/12/13 08:20:51;;;;;;;8.77;2.20;;;;;;;15.74;73.93;95538.94;5087769;28;20111;-26
2023/12/13 08:23:16;;;;;;;10.93;2.03;;;;;;;15.96;73.17;95541.91;5080750;28;20077;-27
2023/12/13 08:25:42;;;;;;;9.13;2.53;;;;;;;15.90;73.82;95541.09;5080998;28;20016;-27
2023/12/13 08:28:08;;;;;;;7.40;2.35;;;;;;;16.07;72.80;95531.06;5080599;28;20031;-27
2023/12/13 08:30:34;;;;;;;7.47;2.72;;;;;;;15.88;74.06;95524.44;5080948;28;20064;-27
2023/12/13 08:33:00;;;;;;;12.10;2.30;;;;;;;15.82;74.04;95535.28;5080682;28;20025;-27
2023/12/13 08:35:26;;;;;;;4.13;1.75;;;;;;;15.97;74.19;95534.44;5082547;28;20028;-27
2023/12/13 08:37:54;;;;;;;9.82;2.58;;;;;;;15.92;73.86;95535.91;5085663;28;20398;-27
2023/12/13 08:40:20;;;;;;;7.22;2.67;;;;;;;15.93;74.26;95537.41;5080576;28;20023;-27
2023/12/13 08:42:46;;;;;;;6.93;2.10;;;;;;;15.95;73.94;95540.38;5077363;28;20381;-26
2023/12/13 08:45:13;;;;;;;4.72;2.05;;;;;;;15.98;74.40;95547.63;5076845;28;20028;-27
2023/12/13 08:47:39;;;;;;;7.43;2.28;;;;;;;15.95;74.29;95548.59;5087701;28;20461;-27
2023/12/13 08:50:05;;;;;;;7.10;2.20;;;;;;;15.98;74.68;95549.63;5079900;28;20141;-27
2023/12/13 08:52:31;;;;;;;4.10;1.70;;;;;;;15.99;74.34;95538.19;5087592;28;20027;-28
2023/12/13 08:54:57;;;;;;;9.13;2.60;;;;;;;15.95;74.04;95543.13;5080394;28;20012;-27
2023/12/13 08:57:22;;;;;;;9.13;2.10;;;;;;;15.99;74.39;95537.44;5080184;28;20052;-27
2023/12/13 08:59:47;;;;;;;10.65;2.20;;;;;;;16.02;74.13;95531.03;5082326;28;20029;-27
2023/12/13 09:02:13;;;;;;;9.63;3.05;;;;;;;15.92;74.47;95532.41;5078433;28;20020;-27
2023/12/13 09:04:38;;;;;;;13.77;2.55;;;;;;;15.96;73.50;95530.97;5079832;28;20365;-26
2023/12/13 09:07:04;;;;;;;9.45;3.03;;;;;;;15.92;74.35;95541.38;5082811;28;20058;-27
2023/12/13 09:09:31;;;;;;;9.07;2.53;;;;;;;15.84;74.63;95523.13;5083169;28;20034;-27
2023/12/13 09:12:00;;;;;;;7.50;2.05;;;;;;;15.99;73.73;95527.25;5081126;28;20020;-27
2023/12/13 09:14:27;;;;;;;10.88;2.83;;;;;;;16.04;73.18;95518.38;5072981;28;20031;-27
2023/12/13 09:16:52;;;;;;;4.65;2.10;;;;;;;15.98;73.71;95519.53;5079739;28;20074;-27
2023/12/13 09:19:18;;;;;;;5.93;2.08;;;;;;;16.02;72.80;95514.63;5076090;28;20021;-27
2023/12/13 09:21:43;;;;;;;5.20;2.05;;;;;;;16.10;73.17;95507.47;5076451;28;20028;-27
2023/12/13 09:24:09;;;;;;;13.30;2.40;;;;;;;15.99;73.02;95508.13;5090965;28;20077;-27
2023/12/13 09:26:35;;;;;;;9.52;3.20;;;;;;;15.94;73.32;95502.63;5081225;28;20054;-27
2023/12/13 09:29:02;;;;;;;5.50;2.10;;;;;;;15.94;72.69;95497.91;5087049;28;20388;-27
2023/12/13 09:31:27;;;;;;;9.05;2.25;;;;;;;15.98;72.17;95498.41;5083640;28;20021;-27
2023/12/13 09:33:53;;;;;;;7.80;2.05;;;;;;;15.93;72.72;95499.13;5090008;28;20016;-27
2023/12/13 09:36:19;;;;;;;6.38;2.28;;;;;;;15.96;72.58;95500.13;5076996;28;20029;-27
2023/12/13 09:38:45;;;;;;;4.53;1.88;;;;;;;15.93;72.70;95493.66;5080904;28;20027;-27
2023/12/13 09:41:11;;;;;;;7.68;1.70;;;;;;;16.00;71.83;95498.69;5061205;28;20029;-27
2023/12/13 09:43:41;;;;;;;6.32;1.80;;;;;;;16.04;71.71;95488.28;5084373;28;20031;-27
2023/12/13 09:46:10;;;;;;;6.82;2.20;;;;;;;15.97;72.48;95480.50;5083553;28;20025;-27
2023/12/13 09:48:37;;;;;;;7.47;2.22;;;;;;;15.94;72.29;95491.69;5084332;28;20103;-26
2023/12/13 09:51:05;;;;;;;6.22;2.00;;;;;;;15.93;71.71;95507.34;5081198;28;20130;-27
2023/12/13 09:53:33;;;;;;;5.65;1.75;;;;;;;15.84;73.02;95498.53;5065325;28;20449;-26
2023/12/13 09:56:00;;;;;;;4.72;1.90;;;;;;;15.92;72.57;95494.88;5079573;28;20028;-26
2023/12/13 09:58:26;;;;;;;6.80;1.92;;;;;;;15.83;73.13;95492.31;5086728;28;20496;-27
2023/12/13 10:00:51;;;;;;;7.97;1.80;;;;;;;16.04;71.54;95482.81;5077736;28;20032;-27
2023/12/13 10:03:17;;;;;;;6.85;2.47;;;;;;;16.00;72.00;95474.06;5085763;28;20042;-27
2023/12/13 10:05:45;;;;;;;3.90;1.70;;;;;;;16.02;72.43;95465.38;5077629;28;20024;-27
2023/12/13 10:08:11;;;;;;;3.20;1.40;;;;;;;15.75;73.25;95452.97;5085881;28;20016;-26
2023/12/13 10:10:37;;;;;;;8.85;1.90;;;;;;;15.89;72.59;95452.09;5079242;28;20389;-29
2023/12/13 10:13:03;;;;;;;5.82;1.88;;;;;;;15.90;73.03;95450.88;5084980;28;20103;-27
2023/12/13 10:15:32;;;;;;;6.60;2.00;;;;;;;16.06;72.17;95453.00;5080770;28;20119;-27
2023/12/13 10:17:58;;;;;;;6.85;1.98;;;;;;;16.07;72.01;95456.50;5082534;28;20025;-27
2023/12/13 10:20:25;;;;;;;7.68;1.60;;;;;;;16.08;72.09;95444.28;5082880;28;20024;-27
2023/12/13 10:22:51;;;;;;;9.48;1.95;;;;;;;15.98;72.38;95451.91;5082703;28;20062;-27
2023/12/13 10:25:19;;;;;;;11.80;2.28;;;;;;;15.98;71.91;95438.25;5085311;28;20024;-28
2023/12/13 10:27:44;;;;;;;5.50;1.73;;;;;;;16.11;71.53;95441.34;5086317;28;20114;-27
2023/12/13 10:30:11;;;;;;;7.32;2.00;;;;;;;15.83;72.94;95432.16;5084065;28;20050;-27
2023/12/13 10:32:36;;;;;;;3.33;1.70;;;;;;;16.04;72.00;95439.06;5082578;28;20024;-27
2023/12/13 10:35:05;;;;;;;9.40;2.53;;;;;;;16.21;71.15;95441.16;5082333;28;20028;-27
2023/12/13 10:37:33;;;;;;;8.23;2.83;;;;;;;15.99;71.65;95433.53;5078032;28;20024;-28
2023/12/13 10:39:59;;;;;;;4.63;2.00;;;;;;;16.13;71.57;95433.41;5079898;28;20082;-27
2023/12/13 10:42:25;;;;;;;9.23;2.30;;;;;;;15.96;71.73;95423.56;5083171;28;20025;-27
2023/12/13 10:44:52;;;;;;;8.98;2.65;;;;;;;15.84;72.70;95422.72;5062819;28;20017;-26
2023/12/13 10:47:25;;;;;;;6.75;1.70;;;;;;;16.11;71.25;95430.41;5081954;28;20023;-27
2023/12/13 10:49:55;;;;;;;11.02;2.58;;;;;;;15.97;71.88;95414.88;5082285;28;20072;-27
2023/12/13 10:52:23;;;;;;;8.00;1.88;;;;;;;16.02;71.91;95427.09;5082447;28;20382;-27
2023/12/13 10:54:50;;;;;;;10.07;2.05;;;;;;;15.99;71.97;95426.06;5081708;28;20037;-27
2023/12/13 10:57:16;;;;;;;12.43;2.17;;;;;;;16.13;71.61;95422.47;5081154;28;20020;-26
2023/12/13 10:59:43;;;;;;;8.55;2.20;;;;;;;16.09;71.62;95416.44;5083168;28;20017;-27
2023/12/13 11:02:10;;;;;;;8.85;2.55;;;;;;;16.07;71.95;95413.44;5082133;28;20120;-27
2023/12/13 11:04:37;;;;;;;8.60;2.83;;;;;;;15.86;72.40;95420.25;5081951;28;20059;-26
2023/12/13 11:07:06;;;;;;;7.78;2.70;;;;;;;16.01;71.97;95411.94;5085086;28;20016;-27
2023/12/13 11:09:32;;;;;;;9.77;3.22;;;;;;;16.00;71.63;95407.69;5078743;28;20097;-27
2023/12/13 11:12:09;;;;;;;13.23;4.05;;;;;;;16.02;71.50;95411.44;5081762;28;20051;-27
2023/12/13 11:14:35;;;;;;;12.25;4.10;;;;;;;15.95;72.02;95403.66;5080812;28;20035;-27
2023/12/13 11:17:00;;;;;;;13.93;5.93;;;;;;;16.00;71.70;95421.38;5083556;28;20024;-28
2023/12/13 11:19:27;;;;;;;10.85;4.80;;;;;;;16.15;71.43;95425.47;5088153;28;20035;-27
2023/12/13 11:21:55;;;;;;;12.52;5.47;;;;;;;16.03;72.11;95415.69;5081492;28;20028;-27
2023/12/13 11:24:26;;;;;;;10.02;4.55;;;;;;;16.07;71.26;95418.19;5089612;28;20377;-26
2023/12/13 11:26:58;;;;;;;10.65;4.45;;;;;;;16.07;70.98;95405.25;5081691;28;20024;-27